Terminal Aerodrome Forecast
Issued by NWS

Current Version | Previous Version | Text Only | Print | Product List | Glossary On
Versions: 1 2 3 4 5 6 7 8 9 10 11 12 13 14 15
000
FTUS42 KTBW 221800 AAA
TAFPIE
TAF AMD
KPIE 221856Z 2219/2318 06006KT P6SM VCTS SCT035CB BKN100
      TEMPO 2219/2220 VRB15G25KT 2SM +TSRA BKN030CB
     FM222000 31007KT P6SM VCTS SCT030CB SCT080 BKN250
     FM230100 VRB03KT P6SM SCT035 BKN250
     FM231400 05005KT P6SM SCT020 SCT250=

USA.gov is the U.S. government's official web portal to all federal, state and local government web resources and services.